Terminal Aerodrome Forecast
Issued by NWS Sioux Falls, SD

Home | Current Version | Previous Version | Text Only | Print | Product List | Glossary On
Versions: 1 2 3 4 5 6 7 8 9 10 11 12 13 14 15 16 17 18 19 20
000
FTUS43 KFSD 301248 AAA
TAFFSD
TAF AMD
KFSD 301248Z 3013/3112 16007KT P6SM FEW015 SCT250
      TEMPO 3013/3015 BKN015
     FM301800 19013G18KT P6SM SKC
     FM310000 19008KT P6SM SCT250
     FM310400 VRB04KT P6SM SCT250=

USA.gov is the U.S. government's official web portal to all federal, state and local government web resources and services.